sensor_id;sensor_type;location;lat;lon;timestamp;P1;durP1;ratioP1;P2;durP2;ratioP2
11222;SDS011;5668;52.012;8.724;2023-04-24T00:00:03;0.60;;;0.60;;
11222;SDS011;5668;52.012;8.724;2023-04-24T00:02:31;0.70;;;0.53;;
11222;SDS011;5668;52.012;8.724;2023-04-24T00:04:59;1.00;;;0.60;;
11222;SDS011;5668;52.012;8.724;2023-04-24T00:07:27;0.77;;;0.73;;
11222;SDS011;5668;52.012;8.724;2023-04-24T00:09:55;0.70;;;0.70;;
11222;SDS011;5668;52.012;8.724;2023-04-24T00:12:23;0.70;;;0.70;;
11222;SDS011;5668;52.012;8.724;2023-04-24T00:14:52;1.53;;;0.80;;
11222;SDS011;5668;52.012;8.724;2023-04-24T00:17:19;0.60;;;0.60;;
11222;SDS011;5668;52.012;8.724;2023-04-24T00:19:47;1.33;;;0.70;;
11222;SDS011;5668;52.012;8.724;2023-04-24T00:22:16;0.90;;;0.70;;
11222;SDS011;5668;52.012;8.724;2023-04-24T00:24:43;1.33;;;0.80;;
11222;SDS011;5668;52.012;8.724;2023-04-24T00:27:10;1.57;;;0.77;;
11222;SDS011;5668;52.012;8.724;2023-04-24T00:29:37;0.70;;;0.70;;
11222;SDS011;5668;52.012;8.724;2023-04-24T00:32:06;0.77;;;0.77;;
11222;SDS011;5668;52.012;8.724;2023-04-24T00:34:34;1.30;;;0.70;;
11222;SDS011;5668;52.012;8.724;2023-04-24T00:37:01;0.77;;;0.73;;
11222;SDS011;5668;52.012;8.724;2023-04-24T00:39:28;1.00;;;0.90;;
11222;SDS011;5668;52.012;8.724;2023-04-24T00:41:55;0.63;;;0.63;;
11222;SDS011;5668;52.012;8.724;2023-04-24T00:44:23;1.27;;;0.80;;
11222;SDS011;5668;52.012;8.724;2023-04-24T00:46:50;0.87;;;0.83;;
11222;SDS011;5668;52.012;8.724;2023-04-24T00:49:21;1.33;;;0.87;;
11222;SDS011;5668;52.012;8.724;2023-04-24T00:51:48;0.80;;;0.80;;
11222;SDS011;5668;52.012;8.724;2023-04-24T00:54:16;1.07;;;0.97;;
11222;SDS011;5668;52.012;8.724;2023-04-24T00:56:44;1.07;;;0.90;;
11222;SDS011;5668;52.012;8.724;2023-04-24T00:59:12;1.30;;;0.90;;
11222;SDS011;5668;52.012;8.724;2023-04-24T01:01:41;1.37;;;0.70;;
11222;SDS011;5668;52.012;8.724;2023-04-24T01:04:09;1.03;;;0.70;;
11222;SDS011;5668;52.012;8.724;2023-04-24T01:06:40;1.50;;;0.80;;
11222;SDS011;5668;52.012;8.724;2023-04-24T01:09:09;1.20;;;0.80;;
11222;SDS011;5668;52.012;8.724;2023-04-24T01:11:38;0.80;;;0.77;;
11222;SDS011;5668;52.012;8.724;2023-04-24T01:14:07;3.03;;;0.83;;
11222;SDS011;5668;52.012;8.724;2023-04-24T01:16:34;1.00;;;0.70;;
11222;SDS011;5668;52.012;8.724;2023-04-24T01:19:03;0.80;;;0.70;;
11222;SDS011;5668;52.012;8.724;2023-04-24T01:21:31;0.70;;;0.70;;
11222;SDS011;5668;52.012;8.724;2023-04-24T01:24:04;1.53;;;0.80;;
11222;SDS011;5668;52.012;8.724;2023-04-24T01:26:32;0.77;;;0.70;;
11222;SDS011;5668;52.012;8.724;2023-04-24T01:29:00;2.20;;;0.70;;
11222;SDS011;5668;52.012;8.724;2023-04-24T01:31:27;0.60;;;0.60;;
11222;SDS011;5668;52.012;8.724;2023-04-24T01:33:55;0.97;;;0.80;;
11222;SDS011;5668;52.012;8.724;2023-04-24T01:36:23;2.40;;;0.73;;
11222;SDS011;5668;52.012;8.724;2023-04-24T01:38:53;1.70;;;0.77;;
11222;SDS011;5668;52.012;8.724;2023-04-24T01:41:21;0.73;;;0.70;;
11222;SDS011;5668;52.012;8.724;2023-04-24T01:43:49;1.03;;;0.63;;
11222;SDS011;5668;52.012;8.724;2023-04-24T01:46:17;0.70;;;0.70;;
11222;SDS011;5668;52.012;8.724;2023-04-24T01:48:44;0.60;;;0.60;;
11222;SDS011;5668;52.012;8.724;2023-04-24T01:51:12;0.70;;;0.70;;
11222;SDS011;5668;52.012;8.724;2023-04-24T01:53:39;0.70;;;0.70;;
11222;SDS011;5668;52.012;8.724;2023-04-24T01:56:06;0.90;;;0.67;;
11222;SDS011;5668;52.012;8.724;2023-04-24T01:58:36;0.70;;;0.70;;
11222;SDS011;5668;52.012;8.724;2023-04-24T02:01:03;1.23;;;0.80;;
11222;SDS011;5668;52.012;8.724;2023-04-24T02:03:32;0.77;;;0.70;;
11222;SDS011;5668;52.012;8.724;2023-04-24T02:05:59;0.80;;;0.70;;
11222;SDS011;5668;52.012;8.724;2023-04-24T02:08:26;1.90;;;0.90;;
11222;SDS011;5668;52.012;8.724;2023-04-24T02:10:53;1.23;;;0.80;;
11222;SDS011;5668;52.012;8.724;2023-04-24T02:13:21;0.80;;;0.80;;
11222;SDS011;5668;52.012;8.724;2023-04-24T02:15:49;0.80;;;0.80;;
11222;SDS011;5668;52.012;8.724;2023-04-24T02:18:17;0.90;;;0.80;;
11222;SDS011;5668;52.012;8.724;2023-04-24T02:20:44;0.80;;;0.80;;
11222;SDS011;5668;52.012;8.724;2023-04-24T02:23:12;0.90;;;0.90;;
11222;SDS011;5668;52.012;8.724;2023-04-24T02:25:39;1.00;;;0.90;;
11222;SDS011;5668;52.012;8.724;2023-04-24T02:28:06;0.80;;;0.80;;
11222;SDS011;5668;52.012;8.724;2023-04-24T02:30:34;2.03;;;0.93;;
11222;SDS011;5668;52.012;8.724;2023-04-24T02:33:02;2.20;;;0.90;;
11222;SDS011;5668;52.012;8.724;2023-04-24T02:35:30;1.20;;;0.80;;
11222;SDS011;5668;52.012;8.724;2023-04-24T02:37:57;0.90;;;0.90;;
11222;SDS011;5668;52.012;8.724;2023-04-24T02:40:24;1.10;;;0.70;;
11222;SDS011;5668;52.012;8.724;2023-04-24T02:42:51;0.87;;;0.80;;
11222;SDS011;5668;52.012;8.724;2023-04-24T02:45:18;2.73;;;0.70;;
11222;SDS011;5668;52.012;8.724;2023-04-24T02:47:46;1.33;;;0.80;;
11222;SDS011;5668;52.012;8.724;2023-04-24T02:50:15;0.73;;;0.70;;
11222;SDS011;5668;52.012;8.724;2023-04-24T02:52:43;0.87;;;0.80;;
11222;SDS011;5668;52.012;8.724;2023-04-24T02:55:10;1.20;;;0.83;;
11222;SDS011;5668;52.012;8.724;2023-04-24T02:57:37;0.70;;;0.70;;
11222;SDS011;5668;52.012;8.724;2023-04-24T03:00:05;1.03;;;0.80;;
11222;SDS011;5668;52.012;8.724;2023-04-24T03:02:34;1.23;;;0.80;;
11222;SDS011;5668;52.012;8.724;2023-04-24T03:05:01;0.80;;;0.80;;
11222;SDS011;5668;52.012;8.724;2023-04-24T03:07:30;0.70;;;0.60;;
11222;SDS011;5668;52.012;8.724;2023-04-24T03:09:58;0.80;;;0.80;;
11222;SDS011;5668;52.012;8.724;2023-04-24T03:12:25;2.00;;;0.90;;
11222;SDS011;5668;52.012;8.724;2023-04-24T03:14:52;0.70;;;0.70;;
11222;SDS011;5668;52.012;8.724;2023-04-24T03:17:19;1.37;;;0.90;;
11222;SDS011;5668;52.012;8.724;2023-04-24T03:19:46;1.97;;;0.80;;
11222;SDS011;5668;52.012;8.724;2023-04-24T03:22:14;1.00;;;0.90;;
11222;SDS011;5668;52.012;8.724;2023-04-24T03:24:43;1.90;;;0.80;;
11222;SDS011;5668;52.012;8.724;2023-04-24T03:27:10;0.93;;;0.80;;
11222;SDS011;5668;52.012;8.724;2023-04-24T03:29:37;0.80;;;0.80;;
11222;SDS011;5668;52.012;8.724;2023-04-24T03:32:04;0.90;;;0.87;;
11222;SDS011;5668;52.012;8.724;2023-04-24T03:34:31;0.70;;;0.70;;
11222;SDS011;5668;52.012;8.724;2023-04-24T03:36:59;1.03;;;0.80;;
11222;SDS011;5668;52.012;8.724;2023-04-24T03:39:27;2.03;;;1.00;;
11222;SDS011;5668;52.012;8.724;2023-04-24T03:41:55;1.30;;;0.90;;
11222;SDS011;5668;52.012;8.724;2023-04-24T03:44:22;1.00;;;0.90;;
11222;SDS011;5668;52.012;8.724;2023-04-24T03:46:50;1.00;;;0.80;;
11222;SDS011;5668;52.012;8.724;2023-04-24T03:49:17;1.37;;;1.00;;
11222;SDS011;5668;52.012;8.724;2023-04-24T03:51:44;1.13;;;1.00;;
11222;SDS011;5668;52.012;8.724;2023-04-24T03:54:11;0.80;;;0.80;;
11222;SDS011;5668;52.012;8.724;2023-04-24T03:56:38;1.40;;;0.90;;
11222;SDS011;5668;52.012;8.724;2023-04-24T03:59:07;0.90;;;0.90;;
11222;SDS011;5668;52.012;8.724;2023-04-24T04:01:34;1.87;;;1.00;;
11222;SDS011;5668;52.012;8.724;2023-04-24T04:04:02;1.60;;;1.10;;
11222;SDS011;5668;52.012;8.724;2023-04-24T04:06:29;1.07;;;0.97;;
11222;SDS011;5668;52.012;8.724;2023-04-24T04:08:56;1.43;;;1.13;;
11222;SDS011;5668;52.012;8.724;2023-04-24T04:11:24;1.87;;;1.10;;
11222;SDS011;5668;52.012;8.724;2023-04-24T04:13:52;1.20;;;1.10;;
11222;SDS011;5668;52.012;8.724;2023-04-24T04:16:21;1.07;;;0.97;;
11222;SDS011;5668;52.012;8.724;2023-04-24T04:18:48;1.43;;;1.30;;
11222;SDS011;5668;52.012;8.724;2023-04-24T04:21:15;2.03;;;1.40;;
11222;SDS011;5668;52.012;8.724;2023-04-24T04:23:42;1.00;;;1.00;;
11222;SDS011;5668;52.012;8.724;2023-04-24T04:26:10;3.03;;;1.40;;
11222;SDS011;5668;52.012;8.724;2023-04-24T04:28:38;1.30;;;1.20;;
11222;SDS011;5668;52.012;8.724;2023-04-24T04:31:05;1.73;;;1.43;;
11222;SDS011;5668;52.012;8.724;2023-04-24T04:33:35;2.00;;;1.50;;
11222;SDS011;5668;52.012;8.724;2023-04-24T04:36:03;2.10;;;1.50;;
11222;SDS011;5668;52.012;8.724;2023-04-24T04:38:30;2.20;;;1.60;;
11222;SDS011;5668;52.012;8.724;2023-04-24T04:41:01;2.73;;;1.47;;
11222;SDS011;5668;52.012;8.724;2023-04-24T04:43:28;2.10;;;1.90;;
11222;SDS011;5668;52.012;8.724;2023-04-24T04:45:56;1.90;;;1.80;;
11222;SDS011;5668;52.012;8.724;2023-04-24T04:48:25;1.90;;;1.70;;
11222;SDS011;5668;52.012;8.724;2023-04-24T04:50:55;4.73;;;2.10;;
11222;SDS011;5668;52.012;8.724;2023-04-24T04:53:22;2.30;;;1.90;;
11222;SDS011;5668;52.012;8.724;2023-04-24T04:55:49;2.70;;;1.80;;
11222;SDS011;5668;52.012;8.724;2023-04-24T04:58:17;2.57;;;1.90;;
11222;SDS011;5668;52.012;8.724;2023-04-24T05:00:44;2.20;;;2.00;;
11222;SDS011;5668;52.012;8.724;2023-04-24T05:03:11;2.63;;;2.00;;
11222;SDS011;5668;52.012;8.724;2023-04-24T05:05:38;2.13;;;2.03;;
11222;SDS011;5668;52.012;8.724;2023-04-24T05:08:07;3.13;;;2.50;;
11222;SDS011;5668;52.012;8.724;2023-04-24T05:10:34;3.20;;;2.90;;
11222;SDS011;5668;52.012;8.724;2023-04-24T05:13:02;3.13;;;2.83;;
11222;SDS011;5668;52.012;8.724;2023-04-24T05:15:29;2.77;;;2.57;;
11222;SDS011;5668;52.012;8.724;2023-04-24T05:17:56;3.00;;;2.80;;
11222;SDS011;5668;52.012;8.724;2023-04-24T05:20:24;3.10;;;2.80;;
11222;SDS011;5668;52.012;8.724;2023-04-24T05:22:51;3.47;;;3.17;;
11222;SDS011;5668;52.012;8.724;2023-04-24T05:25:20;6.30;;;4.47;;
11222;SDS011;5668;52.012;8.724;2023-04-24T05:27:47;5.27;;;4.87;;
11222;SDS011;5668;52.012;8.724;2023-04-24T05:30:14;7.60;;;5.90;;
11222;SDS011;5668;52.012;8.724;2023-04-24T05:32:41;5.53;;;5.03;;
11222;SDS011;5668;52.012;8.724;2023-04-24T05:35:09;6.10;;;5.60;;
11222;SDS011;5668;52.012;8.724;2023-04-24T05:37:36;6.20;;;5.60;;
11222;SDS011;5668;52.012;8.724;2023-04-24T05:40:04;6.30;;;5.70;;
11222;SDS011;5668;52.012;8.724;2023-04-24T05:42:34;6.77;;;5.70;;
11222;SDS011;5668;52.012;8.724;2023-04-24T05:45:01;6.10;;;5.60;;
11222;SDS011;5668;52.012;8.724;2023-04-24T05:47:28;6.80;;;6.20;;
11222;SDS011;5668;52.012;8.724;2023-04-24T05:49:55;7.40;;;6.63;;
11222;SDS011;5668;52.012;8.724;2023-04-24T05:52:23;8.10;;;7.33;;
11222;SDS011;5668;52.012;8.724;2023-04-24T05:54:50;8.27;;;7.47;;
11222;SDS011;5668;52.012;8.724;2023-04-24T05:57:18;9.27;;;8.37;;
11222;SDS011;5668;52.012;8.724;2023-04-24T05:59:46;9.27;;;8.43;;
11222;SDS011;5668;52.012;8.724;2023-04-24T06:02:14;9.33;;;8.47;;
11222;SDS011;5668;52.012;8.724;2023-04-24T06:04:41;9.80;;;8.23;;
11222;SDS011;5668;52.012;8.724;2023-04-24T06:07:09;9.17;;;8.27;;
11222;SDS011;5668;52.012;8.724;2023-04-24T06:09:36;10.07;;;8.27;;
11222;SDS011;5668;52.012;8.724;2023-04-24T06:12:04;9.73;;;8.43;;
11222;SDS011;5668;52.012;8.724;2023-04-24T06:14:33;9.40;;;8.47;;
11222;SDS011;5668;52.012;8.724;2023-04-24T06:17:01;10.13;;;8.83;;
11222;SDS011;5668;52.012;8.724;2023-04-24T06:19:29;9.67;;;8.27;;
11222;SDS011;5668;52.012;8.724;2023-04-24T06:21:56;10.30;;;9.30;;
11222;SDS011;5668;52.012;8.724;2023-04-24T06:24:26;9.53;;;8.63;;
11222;SDS011;5668;52.012;8.724;2023-04-24T06:26:54;9.27;;;8.10;;
11222;SDS011;5668;52.012;8.724;2023-04-24T06:29:23;10.07;;;9.07;;
11222;SDS011;5668;52.012;8.724;2023-04-24T06:31:51;9.77;;;8.77;;
11222;SDS011;5668;52.012;8.724;2023-04-24T06:34:19;11.07;;;8.87;;
11222;SDS011;5668;52.012;8.724;2023-04-24T06:36:46;9.27;;;8.37;;
11222;SDS011;5668;52.012;8.724;2023-04-24T06:39:14;9.87;;;8.97;;
11222;SDS011;5668;52.012;8.724;2023-04-24T06:41:41;10.30;;;9.40;;
11222;SDS011;5668;52.012;8.724;2023-04-24T06:44:08;10.40;;;8.73;;
11222;SDS011;5668;52.012;8.724;2023-04-24T06:46:35;9.43;;;8.57;;
11222;SDS011;5668;52.012;8.724;2023-04-24T06:49:03;9.90;;;8.97;;
11222;SDS011;5668;52.012;8.724;2023-04-24T06:51:31;10.20;;;9.03;;
11222;SDS011;5668;52.012;8.724;2023-04-24T06:53:59;12.13;;;9.30;;
11222;SDS011;5668;52.012;8.724;2023-04-24T06:56:26;9.67;;;8.73;;
11222;SDS011;5668;52.012;8.724;2023-04-24T06:58:54;10.17;;;9.17;;
11222;SDS011;5668;52.012;8.724;2023-04-24T07:01:21;10.20;;;9.20;;
11222;SDS011;5668;52.012;8.724;2023-04-24T07:03:48;12.57;;;10.80;;
11222;SDS011;5668;52.012;8.724;2023-04-24T07:06:15;10.73;;;9.37;;
11222;SDS011;5668;52.012;8.724;2023-04-24T07:08:45;10.00;;;9.10;;
11222;SDS011;5668;52.012;8.724;2023-04-24T07:11:12;10.10;;;8.97;;
11222;SDS011;5668;52.012;8.724;2023-04-24T07:13:39;10.37;;;8.63;;
11222;SDS011;5668;52.012;8.724;2023-04-24T07:16:07;9.70;;;8.73;;
11222;SDS011;5668;52.012;8.724;2023-04-24T07:18:35;9.50;;;8.57;;
11222;SDS011;5668;52.012;8.724;2023-04-24T07:21:02;9.43;;;8.57;;
11222;SDS011;5668;52.012;8.724;2023-04-24T07:23:29;9.43;;;8.53;;
11222;SDS011;5668;52.012;8.724;2023-04-24T07:25:58;9.33;;;8.43;;
11222;SDS011;5668;52.012;8.724;2023-04-24T07:28:25;9.50;;;8.50;;
11222;SDS011;5668;52.012;8.724;2023-04-24T07:30:56;8.83;;;8.03;;
11222;SDS011;5668;52.012;8.724;2023-04-24T07:33:24;8.10;;;6.97;;
11222;SDS011;5668;52.012;8.724;2023-04-24T07:35:51;8.93;;;8.07;;
11222;SDS011;5668;52.012;8.724;2023-04-24T07:38:19;8.30;;;7.23;;
11222;SDS011;5668;52.012;8.724;2023-04-24T07:40:47;8.93;;;7.27;;
11222;SDS011;5668;52.012;8.724;2023-04-24T07:43:15;9.87;;;7.37;;
11222;SDS011;5668;52.012;8.724;2023-04-24T07:45:43;7.90;;;7.17;;
11222;SDS011;5668;52.012;8.724;2023-04-24T07:48:10;7.30;;;6.70;;
11222;SDS011;5668;52.012;8.724;2023-04-24T07:50:39;7.47;;;6.77;;
11222;SDS011;5668;52.012;8.724;2023-04-24T07:53:07;8.00;;;6.67;;
11222;SDS011;5668;52.012;8.724;2023-04-24T07:55:34;7.60;;;6.53;;
11222;SDS011;5668;52.012;8.724;2023-04-24T07:58:01;7.23;;;6.53;;
11222;SDS011;5668;52.012;8.724;2023-04-24T08:00:30;7.27;;;6.57;;
11222;SDS011;5668;52.012;8.724;2023-04-24T08:02:57;7.50;;;6.20;;
11222;SDS011;5668;52.012;8.724;2023-04-24T08:05:24;6.50;;;5.90;;
11222;SDS011;5668;52.012;8.724;2023-04-24T08:07:53;6.90;;;6.23;;
11222;SDS011;5668;52.012;8.724;2023-04-24T08:10:21;6.50;;;5.90;;
11222;SDS011;5668;52.012;8.724;2023-04-24T08:12:48;6.77;;;6.17;;
11222;SDS011;5668;52.012;8.724;2023-04-24T08:15:16;5.97;;;5.47;;
11222;SDS011;5668;52.012;8.724;2023-04-24T08:17:45;5.43;;;4.93;;
11222;SDS011;5668;52.012;8.724;2023-04-24T08:20:12;6.07;;;5.57;;
11222;SDS011;5668;52.012;8.724;2023-04-24T08:22:40;8.43;;;5.53;;
11222;SDS011;5668;52.012;8.724;2023-04-24T08:25:09;5.83;;;5.33;;
11222;SDS011;5668;52.012;8.724;2023-04-24T08:27:37;5.20;;;4.67;;
11222;SDS011;5668;52.012;8.724;2023-04-24T08:30:05;5.27;;;4.83;;
11222;SDS011;5668;52.012;8.724;2023-04-24T08:32:33;5.57;;;5.07;;
11222;SDS011;5668;52.012;8.724;2023-04-24T08:35:02;4.93;;;4.47;;
11222;SDS011;5668;52.012;8.724;2023-04-24T08:37:29;5.27;;;4.80;;
11222;SDS011;5668;52.012;8.724;2023-04-24T08:39:56;4.40;;;3.90;;
11222;SDS011;5668;52.012;8.724;2023-04-24T08:42:23;4.30;;;3.90;;
11222;SDS011;5668;52.012;8.724;2023-04-24T08:44:54;4.23;;;3.87;;
11222;SDS011;5668;52.012;8.724;2023-04-24T08:47:22;4.67;;;3.43;;
11222;SDS011;5668;52.012;8.724;2023-04-24T08:49:52;3.33;;;3.10;;
11222;SDS011;5668;52.012;8.724;2023-04-24T08:52:22;5.63;;;3.50;;
11222;SDS011;5668;52.012;8.724;2023-04-24T08:54:53;3.90;;;3.50;;
11222;SDS011;5668;52.012;8.724;2023-04-24T08:57:20;3.43;;;3.13;;
11222;SDS011;5668;52.012;8.724;2023-04-24T08:59:48;3.83;;;3.53;;
11222;SDS011;5668;52.012;8.724;2023-04-24T09:02:16;3.27;;;3.07;;
11222;SDS011;5668;52.012;8.724;2023-04-24T09:04:44;3.70;;;3.10;;
11222;SDS011;5668;52.012;8.724;2023-04-24T09:07:13;2.90;;;2.70;;
11222;SDS011;5668;52.012;8.724;2023-04-24T09:09:44;3.00;;;2.80;;
11222;SDS011;5668;52.012;8.724;2023-04-24T09:12:11;3.53;;;3.00;;
11222;SDS011;5668;52.012;8.724;2023-04-24T09:14:39;3.13;;;2.80;;
11222;SDS011;5668;52.012;8.724;2023-04-24T09:17:10;3.63;;;2.77;;
11222;SDS011;5668;52.012;8.724;2023-04-24T09:19:37;4.30;;;3.10;;
11222;SDS011;5668;52.012;8.724;2023-04-24T09:22:04;3.37;;;3.07;;
11222;SDS011;5668;52.012;8.724;2023-04-24T09:24:33;2.67;;;2.47;;
11222;SDS011;5668;52.012;8.724;2023-04-24T09:27:02;3.20;;;2.90;;
11222;SDS011;5668;52.012;8.724;2023-04-24T09:29:29;2.90;;;2.70;;
11222;SDS011;5668;52.012;8.724;2023-04-24T09:31:58;3.53;;;2.90;;
11222;SDS011;5668;52.012;8.724;2023-04-24T09:34:26;2.80;;;2.60;;
11222;SDS011;5668;52.012;8.724;2023-04-24T09:36:54;2.97;;;2.67;;
11222;SDS011;5668;52.012;8.724;2023-04-24T09:39:21;2.20;;;2.00;;
11222;SDS011;5668;52.012;8.724;2023-04-24T09:41:49;2.87;;;2.20;;
11222;SDS011;5668;52.012;8.724;2023-04-24T09:44:19;2.77;;;2.30;;
11222;SDS011;5668;52.012;8.724;2023-04-24T09:46:49;3.73;;;2.30;;
11222;SDS011;5668;52.012;8.724;2023-04-24T09:49:21;2.60;;;2.20;;
11222;SDS011;5668;52.012;8.724;2023-04-24T09:51:49;2.30;;;2.10;;
11222;SDS011;5668;52.012;8.724;2023-04-24T09:54:18;2.80;;;2.50;;
11222;SDS011;5668;52.012;8.724;2023-04-24T09:56:47;3.07;;;2.40;;
11222;SDS011;5668;52.012;8.724;2023-04-24T09:59:17;2.40;;;2.20;;
11222;SDS011;5668;52.012;8.724;2023-04-24T10:01:45;2.40;;;2.20;;
11222;SDS011;5668;52.012;8.724;2023-04-24T10:04:17;2.10;;;2.00;;
11222;SDS011;5668;52.012;8.724;2023-04-24T10:06:46;2.33;;;2.13;;
11222;SDS011;5668;52.012;8.724;2023-04-24T10:09:15;4.00;;;3.60;;
11222;SDS011;5668;52.012;8.724;2023-04-24T10:11:44;2.83;;;2.63;;
11222;SDS011;5668;52.012;8.724;2023-04-24T10:14:13;3.00;;;2.00;;
11222;SDS011;5668;52.012;8.724;2023-04-24T10:16:44;1.67;;;1.57;;
11222;SDS011;5668;52.012;8.724;2023-04-24T10:19:13;1.53;;;1.43;;
11222;SDS011;5668;52.012;8.724;2023-04-24T10:21:41;1.80;;;1.30;;
11222;SDS011;5668;52.012;8.724;2023-04-24T10:24:11;1.30;;;1.20;;
11222;SDS011;5668;52.012;8.724;2023-04-24T10:26:40;1.40;;;1.30;;
11222;SDS011;5668;52.012;8.724;2023-04-24T10:29:08;1.20;;;1.10;;
11222;SDS011;5668;52.012;8.724;2023-04-24T10:31:38;0.97;;;0.97;;
11222;SDS011;5668;52.012;8.724;2023-04-24T10:34:08;1.47;;;1.27;;
11222;SDS011;5668;52.012;8.724;2023-04-24T10:36:38;1.23;;;0.93;;
11222;SDS011;5668;52.012;8.724;2023-04-24T10:39:10;1.43;;;0.90;;
11222;SDS011;5668;52.012;8.724;2023-04-24T10:41:40;0.90;;;0.90;;
11222;SDS011;5668;52.012;8.724;2023-04-24T10:44:08;1.00;;;0.90;;
11222;SDS011;5668;52.012;8.724;2023-04-24T10:46:36;1.10;;;1.00;;
11222;SDS011;5668;52.012;8.724;2023-04-24T10:49:05;1.13;;;1.03;;
11222;SDS011;5668;52.012;8.724;2023-04-24T10:51:46;0.80;;;0.80;;
11222;SDS011;5668;52.012;8.724;2023-04-24T10:54:21;0.83;;;0.83;;
11222;SDS011;5668;52.012;8.724;2023-04-24T10:56:50;1.07;;;1.07;;
11222;SDS011;5668;52.012;8.724;2023-04-24T10:59:24;1.20;;;1.10;;
11222;SDS011;5668;52.012;8.724;2023-04-24T11:01:52;1.53;;;1.43;;
11222;SDS011;5668;52.012;8.724;2023-04-24T11:04:32;1.50;;;1.40;;
11222;SDS011;5668;52.012;8.724;2023-04-24T11:07:00;1.40;;;1.30;;
11222;SDS011;5668;52.012;8.724;2023-04-24T11:09:29;1.20;;;1.10;;
11222;SDS011;5668;52.012;8.724;2023-04-24T11:12:03;0.90;;;0.90;;
11222;SDS011;5668;52.012;8.724;2023-04-24T11:17:30;1.20;;;1.10;;
11222;SDS011;5668;52.012;8.724;2023-04-24T11:20:03;1.20;;;1.10;;
11222;SDS011;5668;52.012;8.724;2023-04-24T11:22:33;1.20;;;1.10;;
11222;SDS011;5668;52.012;8.724;2023-04-24T11:25:02;1.97;;;1.20;;
11222;SDS011;5668;52.012;8.724;2023-04-24T11:27:31;1.50;;;1.30;;
11222;SDS011;5668;52.012;8.724;2023-04-24T11:30:04;1.10;;;1.10;;
11222;SDS011;5668;52.012;8.724;2023-04-24T11:32:34;1.43;;;1.33;;
11222;SDS011;5668;52.012;8.724;2023-04-24T11:35:04;0.90;;;0.90;;
11222;SDS011;5668;52.012;8.724;2023-04-24T11:37:34;1.33;;;1.23;;
11222;SDS011;5668;52.012;8.724;2023-04-24T11:40:03;1.40;;;1.30;;
11222;SDS011;5668;52.012;8.724;2023-04-24T11:42:36;1.30;;;1.20;;
11222;SDS011;5668;52.012;8.724;2023-04-24T11:45:07;1.40;;;1.30;;
11222;SDS011;5668;52.012;8.724;2023-04-24T11:47:35;1.70;;;1.60;;
11222;SDS011;5668;52.012;8.724;2023-04-24T11:50:06;1.57;;;1.47;;
11222;SDS011;5668;52.012;8.724;2023-04-24T11:52:37;1.57;;;1.47;;
11222;SDS011;5668;52.012;8.724;2023-04-24T11:55:06;1.37;;;1.27;;
11222;SDS011;5668;52.012;8.724;2023-04-24T11:57:35;1.30;;;1.20;;
11222;SDS011;5668;52.012;8.724;2023-04-24T12:00:03;0.80;;;0.80;;
11222;SDS011;5668;52.012;8.724;2023-04-24T12:02:31;0.90;;;0.90;;
11222;SDS011;5668;52.012;8.724;2023-04-24T12:04:58;1.67;;;1.00;;
11222;SDS011;5668;52.012;8.724;2023-04-24T12:07:27;0.97;;;0.80;;
11222;SDS011;5668;52.012;8.724;2023-04-24T12:09:55;1.00;;;0.90;;
11222;SDS011;5668;52.012;8.724;2023-04-24T12:12:25;1.73;;;0.80;;
11222;SDS011;5668;52.012;8.724;2023-04-24T12:14:53;1.13;;;0.80;;
11222;SDS011;5668;52.012;8.724;2023-04-24T12:17:27;0.80;;;0.80;;
11222;SDS011;5668;52.012;8.724;2023-04-24T12:19:58;2.43;;;1.00;;
11222;SDS011;5668;52.012;8.724;2023-04-24T12:22:36;1.13;;;0.97;;
11222;SDS011;5668;52.012;8.724;2023-04-24T12:25:11;1.10;;;1.00;;
11222;SDS011;5668;52.012;8.724;2023-04-24T12:27:39;1.33;;;1.23;;
11222;SDS011;5668;52.012;8.724;2023-04-24T12:30:09;1.30;;;1.20;;
11222;SDS011;5668;52.012;8.724;2023-04-24T12:32:40;1.60;;;1.40;;
11222;SDS011;5668;52.012;8.724;2023-04-24T12:35:09;3.17;;;1.57;;
11222;SDS011;5668;52.012;8.724;2023-04-24T12:37:37;1.60;;;1.50;;
11222;SDS011;5668;52.012;8.724;2023-04-24T12:40:07;1.70;;;1.50;;
11222;SDS011;5668;52.012;8.724;2023-04-24T12:42:41;2.20;;;1.70;;
11222;SDS011;5668;52.012;8.724;2023-04-24T12:45:10;2.27;;;1.83;;
11222;SDS011;5668;52.012;8.724;2023-04-24T12:47:38;2.97;;;1.93;;
11222;SDS011;5668;52.012;8.724;2023-04-24T12:50:07;4.20;;;2.87;;
11222;SDS011;5668;52.012;8.724;2023-04-24T12:52:37;2.53;;;1.93;;
11222;SDS011;5668;52.012;8.724;2023-04-24T12:55:05;2.33;;;2.00;;
11222;SDS011;5668;52.012;8.724;2023-04-24T12:57:34;2.80;;;2.60;;
11222;SDS011;5668;52.012;8.724;2023-04-24T13:00:03;2.67;;;2.47;;
11222;SDS011;5668;52.012;8.724;2023-04-24T13:02:31;3.13;;;2.40;;
11222;SDS011;5668;52.012;8.724;2023-04-24T13:04:59;4.10;;;2.80;;
11222;SDS011;5668;52.012;8.724;2023-04-24T13:07:26;4.33;;;3.00;;
11222;SDS011;5668;52.012;8.724;2023-04-24T13:09:56;3.67;;;2.90;;
11222;SDS011;5668;52.012;8.724;2023-04-24T13:12:23;3.17;;;2.87;;
11222;SDS011;5668;52.012;8.724;2023-04-24T13:14:51;4.00;;;3.03;;
11222;SDS011;5668;52.012;8.724;2023-04-24T13:17:19;3.20;;;2.90;;
11222;SDS011;5668;52.012;8.724;2023-04-24T13:19:46;4.00;;;2.53;;
11222;SDS011;5668;52.012;8.724;2023-04-24T13:22:15;4.23;;;2.40;;
11222;SDS011;5668;52.012;8.724;2023-04-24T13:24:43;4.30;;;2.83;;
11222;SDS011;5668;52.012;8.724;2023-04-24T13:27:15;4.73;;;2.73;;
11222;SDS011;5668;52.012;8.724;2023-04-24T13:29:42;2.80;;;2.57;;
11222;SDS011;5668;52.012;8.724;2023-04-24T13:32:09;2.67;;;2.47;;
11222;SDS011;5668;52.012;8.724;2023-04-24T13:34:36;2.53;;;2.30;;
11222;SDS011;5668;52.012;8.724;2023-04-24T13:37:04;2.40;;;2.10;;
11222;SDS011;5668;52.012;8.724;2023-04-24T13:39:32;2.60;;;2.40;;
11222;SDS011;5668;52.012;8.724;2023-04-24T13:42:00;4.03;;;2.47;;
11222;SDS011;5668;52.012;8.724;2023-04-24T13:44:28;4.30;;;3.00;;
11222;SDS011;5668;52.012;8.724;2023-04-24T13:46:56;4.77;;;2.50;;
11222;SDS011;5668;52.012;8.724;2023-04-24T13:49:24;3.60;;;2.23;;
11222;SDS011;5668;52.012;8.724;2023-04-24T13:51:52;4.80;;;2.93;;
11222;SDS011;5668;52.012;8.724;2023-04-24T13:54:21;4.77;;;2.77;;
11222;SDS011;5668;52.012;8.724;2023-04-24T13:56:50;5.33;;;2.77;;
11222;SDS011;5668;52.012;8.724;2023-04-24T13:59:18;4.33;;;2.80;;
11222;SDS011;5668;52.012;8.724;2023-04-24T14:01:48;5.43;;;3.50;;
11222;SDS011;5668;52.012;8.724;2023-04-24T14:04:15;5.63;;;3.33;;
11222;SDS011;5668;52.012;8.724;2023-04-24T14:06:43;5.67;;;3.77;;
11222;SDS011;5668;52.012;8.724;2023-04-24T14:09:10;5.43;;;3.60;;
11222;SDS011;5668;52.012;8.724;2023-04-24T14:11:37;6.87;;;4.13;;
11222;SDS011;5668;52.012;8.724;2023-04-24T14:14:05;6.30;;;4.30;;
11222;SDS011;5668;52.012;8.724;2023-04-24T14:16:32;6.87;;;4.33;;
11222;SDS011;5668;52.012;8.724;2023-04-24T14:19:01;7.83;;;4.70;;
11222;SDS011;5668;52.012;8.724;2023-04-24T14:21:30;7.87;;;4.70;;
11222;SDS011;5668;52.012;8.724;2023-04-24T14:23:57;8.63;;;4.60;;
11222;SDS011;5668;52.012;8.724;2023-04-24T14:26:24;7.03;;;4.50;;
11222;SDS011;5668;52.012;8.724;2023-04-24T14:28:51;4.77;;;3.90;;
11222;SDS011;5668;52.012;8.724;2023-04-24T14:31:20;7.30;;;4.27;;
11222;SDS011;5668;52.012;8.724;2023-04-24T14:33:47;6.40;;;4.37;;
11222;SDS011;5668;52.012;8.724;2023-04-24T14:36:15;7.20;;;4.20;;
11222;SDS011;5668;52.012;8.724;2023-04-24T14:38:43;7.53;;;4.57;;
11222;SDS011;5668;52.012;8.724;2023-04-24T14:41:10;5.97;;;4.00;;
11222;SDS011;5668;52.012;8.724;2023-04-24T14:43:37;8.53;;;4.23;;
11222;SDS011;5668;52.012;8.724;2023-04-24T14:46:05;8.43;;;4.17;;
11222;SDS011;5668;52.012;8.724;2023-04-24T14:48:32;6.97;;;4.17;;
11222;SDS011;5668;52.012;8.724;2023-04-24T14:50:59;8.07;;;5.10;;
11222;SDS011;5668;52.012;8.724;2023-04-24T14:53:28;9.77;;;4.83;;
11222;SDS011;5668;52.012;8.724;2023-04-24T14:55:55;8.23;;;4.60;;
11222;SDS011;5668;52.012;8.724;2023-04-24T14:58:22;8.40;;;4.70;;
11222;SDS011;5668;52.012;8.724;2023-04-24T15:00:49;9.50;;;5.07;;
11222;SDS011;5668;52.012;8.724;2023-04-24T15:03:19;9.07;;;4.50;;
11222;SDS011;5668;52.012;8.724;2023-04-24T15:05:47;5.40;;;4.40;;
11222;SDS011;5668;52.012;8.724;2023-04-24T15:08:15;6.67;;;4.67;;